createdAt,value
2022-11-05T00:00:43.135Z,5.31
2022-11-05T00:03:29.805Z,5.49
2022-11-05T00:06:16.972Z,5.89
2022-11-05T00:09:04.301Z,5.87
2022-11-05T00:11:47.863Z,5.73
2022-11-05T00:14:35.164Z,5.33
2022-11-05T00:17:05.368Z,5.53
2022-11-05T00:19:34.239Z,5.42
2022-11-05T00:22:20.959Z,5.55
2022-11-05T00:25:07.263Z,5.36
2022-11-05T00:27:36.241Z,5.35
2022-11-05T00:30:09.638Z,5.12
2022-11-05T00:32:40.578Z,5.39
2022-11-05T00:35:09.843Z,4.98
2022-11-05T00:37:38.930Z,5.44
2022-11-05T00:40:09.157Z,5.53
2022-11-05T00:42:55.806Z,5.74
2022-11-05T00:45:24.597Z,5.88
2022-11-05T00:48:12.635Z,5.99
2022-11-05T00:50:41.721Z,6.04
2022-11-05T00:53:11.127Z,6.03
2022-11-05T00:55:42.233Z,6.12
2022-11-05T00:58:12.587Z,6.05
2022-11-05T01:00:43.767Z,6.02
2022-11-05T01:03:15.969Z,5.97
2022-11-05T01:05:46.814Z,5.69
2022-11-05T01:08:18.088Z,5.68
2022-11-05T01:10:52.622Z,5.78
2022-11-05T01:13:23.159Z,5.68
2022-11-05T01:15:52.663Z,5.58
2022-11-05T01:18:24.005Z,5.44
2022-11-05T01:20:52.789Z,5.39
2022-11-05T01:23:22.040Z,5.22
2022-11-05T01:25:51.052Z,5.31
2022-11-05T01:28:20.333Z,5.76
2022-11-05T01:30:56.852Z,5.39
2022-11-05T01:33:28.202Z,5.85
2022-11-05T01:35:56.989Z,5.82
2022-11-05T01:38:25.857Z,5.60
2022-11-05T01:40:54.587Z,5.51
2022-11-05T01:43:24.755Z,5.84
2022-11-05T01:45:58.476Z,6.18
2022-11-05T01:48:33.552Z,6.31
2022-11-05T01:51:05.969Z,6.08
2022-11-05T01:53:39.859Z,6.20
2022-11-05T01:56:13.075Z,6.36
2022-11-05T01:58:45.937Z,6.45
2022-11-05T02:01:14.909Z,6.18
2022-11-05T02:03:46.384Z,5.94
2022-11-05T02:06:17.617Z,6.36
2022-11-05T02:08:56.182Z,6.51
2022-11-05T02:11:24.988Z,6.46
2022-11-05T02:13:54.090Z,6.19
2022-11-05T02:16:35.992Z,4.66
2022-11-05T02:19:29.421Z,6.41
2022-11-05T02:22:20.538Z,6.24
2022-11-05T02:25:01.493Z,6.11
2022-11-05T02:27:57.524Z,6.46
2022-11-05T02:30:43.582Z,6.55
2022-11-05T02:33:24.916Z,6.49
2022-11-05T02:36:07.820Z,5.81
2022-11-05T02:38:47.972Z,5.58
2022-11-05T02:41:24.401Z,5.98
2022-11-05T02:44:06.374Z,5.69
2022-11-05T02:46:46.277Z,5.39
2022-11-05T02:49:26.255Z,5.55
2022-11-05T02:51:59.295Z,5.37
2022-11-05T02:54:35.361Z,5.49
2022-11-05T02:57:05.321Z,3.93
2022-11-05T02:59:34.506Z,5.66
2022-11-05T03:02:06.784Z,5.44
2022-11-05T03:04:35.897Z,6.05
2022-11-05T03:07:23.928Z,6.15
2022-11-05T03:10:24.191Z,6.40
2022-11-05T03:13:03.696Z,5.71
2022-11-05T03:15:48.921Z,5.93
2022-11-05T03:18:26.667Z,6.29
2022-11-05T03:21:04.255Z,6.41
2022-11-05T03:23:40.481Z,6.25
2022-11-05T03:26:17.672Z,6.46
2022-11-05T03:28:51.863Z,6.20
2022-11-05T03:31:22.479Z,6.49
2022-11-05T03:33:54.809Z,6.38
2022-11-05T03:36:28.894Z,6.29
2022-11-05T03:39:02.367Z,5.78
2022-11-05T03:41:34.299Z,6.57
2022-11-05T03:44:06.731Z,6.05
2022-11-05T03:46:39.898Z,6.30
2022-11-05T03:49:15.799Z,5.78
2022-11-05T03:51:50.001Z,5.67
2022-11-05T03:54:20.740Z,6.65
2022-11-05T03:57:02.243Z,6.57
2022-11-05T03:59:39.512Z,6.43
2022-11-05T04:02:08.884Z,6.60
2022-11-05T04:04:39.764Z,6.70
2022-11-05T04:07:27.417Z,6.32
2022-11-05T04:10:14.206Z,6.75
2022-11-05T04:13:00.383Z,6.82
2022-11-05T04:15:53.664Z,6.68
2022-11-05T04:18:24.281Z,6.74
2022-11-05T04:21:12.725Z,6.46
2022-11-05T04:24:00.762Z,6.93
2022-11-05T04:26:29.665Z,6.54
2022-11-05T04:29:30.575Z,6.42
2022-11-05T04:31:59.783Z,5.10
2022-11-05T04:34:28.996Z,6.04
2022-11-05T04:37:00.459Z,6.89
2022-11-05T04:39:30.651Z,5.94
2022-11-05T04:41:59.872Z,6.41
2022-11-05T04:44:31.248Z,6.68
2022-11-05T04:47:00.220Z,6.58
2022-11-05T04:49:29.304Z,7.04
2022-11-05T04:51:59.850Z,6.97
2022-11-05T04:54:33.902Z,6.72
2022-11-05T04:57:15.628Z,6.18
2022-11-05T04:59:44.836Z,6.82
2022-11-05T05:02:14.108Z,6.79
2022-11-05T05:04:43.014Z,6.86
2022-11-05T05:07:13.369Z,6.84
2022-11-05T05:09:42.200Z,7.00
2022-11-05T05:12:11.099Z,6.74
2022-11-05T05:14:40.584Z,6.92
2022-11-05T05:17:10.122Z,7.05
2022-11-05T05:19:52.931Z,7.13
2022-11-05T05:22:23.865Z,6.96
2022-11-05T05:24:56.749Z,6.68
2022-11-05T05:27:26.244Z,7.02
2022-11-05T05:29:55.247Z,7.21
2022-11-05T05:32:24.712Z,7.34
2022-11-05T05:34:53.858Z,7.35
2022-11-05T05:37:24.475Z,7.13
2022-11-05T05:39:53.704Z,6.94
2022-11-05T05:42:23.205Z,7.38
2022-11-05T05:44:52.195Z,7.50
2022-11-05T05:47:21.093Z,7.47
2022-11-05T05:49:50.825Z,7.48
2022-11-05T05:52:20.283Z,7.48
2022-11-05T05:54:50.708Z,7.51
2022-11-05T05:57:22.697Z,7.28
2022-11-05T05:59:52.118Z,7.78
2022-11-05T06:02:23.084Z,7.56
2022-11-05T06:04:52.302Z,7.56
2022-11-05T06:07:21.398Z,7.57
2022-11-05T06:09:51.879Z,7.46
2022-11-05T06:12:20.719Z,7.73
2022-11-05T06:14:49.930Z,7.64
2022-11-05T06:17:18.811Z,7.77
2022-11-05T06:19:48.105Z,7.91
2022-11-05T06:22:17.402Z,7.75
2022-11-05T06:24:50.336Z,7.95
2022-11-05T06:27:21.048Z,7.32
2022-11-05T06:29:50.337Z,7.74
2022-11-05T06:32:44.221Z,6.79
2022-11-05T06:35:16.714Z,7.23
2022-11-05T06:37:55.112Z,7.55
2022-11-05T06:40:25.472Z,8.28
2022-11-05T06:46:08.009Z,8.38
2022-11-05T06:48:40.080Z,8.31
2022-11-05T06:51:10.786Z,8.55
2022-11-05T06:53:40.085Z,8.61
2022-11-05T06:56:09.900Z,8.37
2022-11-05T06:58:40.819Z,8.37
2022-11-05T07:01:14.354Z,8.62
2022-11-05T07:03:45.235Z,8.52
2022-11-05T07:06:14.328Z,8.74
2022-11-05T07:08:43.667Z,8.54
2022-11-05T07:11:13.449Z,8.26
2022-11-05T07:13:43.664Z,8.15
2022-11-05T07:16:14.001Z,8.19
2022-11-05T07:18:42.990Z,8.01
2022-11-05T07:21:11.904Z,7.95
2022-11-05T07:23:41.088Z,8.04
2022-11-05T07:26:10.094Z,7.85
2022-11-05T07:28:40.068Z,7.84
2022-11-05T07:31:10.726Z,7.70
2022-11-05T07:33:41.532Z,7.91
2022-11-05T07:36:17.711Z,7.46
2022-11-05T07:38:50.462Z,8.16
2022-11-05T07:41:19.952Z,7.74
2022-11-05T07:44:03.610Z,6.42
2022-11-05T07:46:37.472Z,7.97
2022-11-05T07:49:06.957Z,6.59
2022-11-05T07:51:37.904Z,7.92
2022-11-05T07:54:07.623Z,6.98
2022-11-05T07:56:36.491Z,7.87
2022-11-05T07:59:05.879Z,7.43
2022-11-05T08:01:36.892Z,8.06
2022-11-05T08:04:06.222Z,7.87
2022-11-05T08:06:35.579Z,7.40
2022-11-05T08:09:05.371Z,7.77
2022-11-05T08:11:35.953Z,7.43
2022-11-05T08:14:06.130Z,7.36
2022-11-05T08:16:39.639Z,7.70
2022-11-05T08:19:08.737Z,7.66
2022-11-05T08:21:39.050Z,7.88
2022-11-05T08:24:17.969Z,5.90
2022-11-05T08:26:50.146Z,6.09
2022-11-05T08:29:21.357Z,7.85
2022-11-05T08:31:52.297Z,7.75
2022-11-05T08:34:21.702Z,7.43
2022-11-05T08:36:51.186Z,7.84
2022-11-05T08:39:20.238Z,6.70
2022-11-05T08:41:50.692Z,6.49
2022-11-05T08:44:20.079Z,7.52
2022-11-05T08:46:49.588Z,6.58
2022-11-05T08:49:20.154Z,6.35
2022-11-05T08:51:49.671Z,6.93
2022-11-05T08:54:19.470Z,6.68
2022-11-05T08:56:49.167Z,6.92
2022-11-05T08:59:18.713Z,7.61
2022-11-05T09:01:50.657Z,7.41
2022-11-05T09:04:21.707Z,6.87
2022-11-05T09:06:50.836Z,7.24
2022-11-05T09:09:21.544Z,7.57
2022-11-05T09:12:11.049Z,7.77
2022-11-05T09:14:41.258Z,5.94
2022-11-05T09:17:17.562Z,7.57
2022-11-05T09:19:48.608Z,7.59
2022-11-05T09:22:17.906Z,6.97
2022-11-05T09:24:47.053Z,7.69
2022-11-05T09:27:16.215Z,7.54
2022-11-05T09:29:45.652Z,7.10
2022-11-05T09:32:18.802Z,7.42
2022-11-05T09:34:53.409Z,7.27
2022-11-05T09:37:23.206Z,7.50
2022-11-05T09:39:52.135Z,7.76
2022-11-05T09:42:25.071Z,7.34
2022-11-05T09:44:59.585Z,7.03
2022-11-05T09:47:34.145Z,7.41
2022-11-05T09:50:14.270Z,7.12
2022-11-05T09:52:43.852Z,7.39
2022-11-05T09:55:22.070Z,7.63
2022-11-05T09:57:55.989Z,7.54
2022-11-05T10:00:25.656Z,7.43
2022-11-05T10:02:57.259Z,7.35
2022-11-05T10:05:30.144Z,7.23
2022-11-05T10:08:03.927Z,7.16
2022-11-05T10:10:41.008Z,7.14
2022-11-05T10:13:20.729Z,7.57
2022-11-05T10:15:59.370Z,7.67
2022-11-05T10:18:32.865Z,7.70
2022-11-05T10:21:03.587Z,7.60
2022-11-05T10:23:33.451Z,7.61
2022-11-05T10:26:12.957Z,7.81
2022-11-05T10:28:42.064Z,7.45
2022-11-05T10:31:14.707Z,7.76
2022-11-05T10:33:46.792Z,7.83
2022-11-05T10:36:22.526Z,7.36
2022-11-05T10:38:51.930Z,7.45
2022-11-05T10:41:36.096Z,7.72
2022-11-05T10:44:18.933Z,7.77
2022-11-05T10:46:59.022Z,8.01
2022-11-05T10:49:44.530Z,8.04
2022-11-05T10:52:24.128Z,7.26
2022-11-05T10:55:02.169Z,7.81
2022-11-05T10:57:34.753Z,7.97
2022-11-05T11:00:24.660Z,6.10
2022-11-05T11:02:57.296Z,7.98
2022-11-05T11:05:32.975Z,7.42
2022-11-05T11:08:19.593Z,7.07
2022-11-05T11:10:54.326Z,8.14
2022-11-05T11:13:27.695Z,8.00
2022-11-05T11:16:14.843Z,7.94
2022-11-05T11:18:45.486Z,8.06
2022-11-05T11:21:16.934Z,8.03
2022-11-05T11:23:55.874Z,7.42
2022-11-05T11:26:31.450Z,7.78
2022-11-05T11:29:03.075Z,7.80
2022-11-05T11:31:33.921Z,7.73
2022-11-05T11:34:07.047Z,7.65
2022-11-05T11:36:41.579Z,7.05
2022-11-05T11:39:18.648Z,7.58
2022-11-05T11:41:54.176Z,7.92
2022-11-05T11:44:27.703Z,8.27
2022-11-05T11:47:01.193Z,7.83
2022-11-05T11:49:32.291Z,7.93
2022-11-05T11:52:04.918Z,8.09
2022-11-05T11:54:36.185Z,7.99
2022-11-05T11:57:22.381Z,7.98
2022-11-05T12:00:08.224Z,7.99
2022-11-05T12:03:01.815Z,7.77
2022-11-05T12:05:37.634Z,7.98
2022-11-05T12:08:21.475Z,8.00
2022-11-05T12:11:01.167Z,6.59
2022-11-05T12:13:55.294Z,7.69
2022-11-05T12:16:49.768Z,7.84
2022-11-05T12:19:32.322Z,8.08
2022-11-05T12:22:08.695Z,8.24
2022-11-05T12:25:17.198Z,8.39
2022-11-05T12:28:16.724Z,6.51
2022-11-05T12:30:53.594Z,7.29
2022-11-05T12:33:37.797Z,8.10
2022-11-05T12:36:25.584Z,8.11
2022-11-05T12:39:10.522Z,7.46
2022-11-05T12:41:50.792Z,7.97
2022-11-05T12:44:39.837Z,7.70
2022-11-05T12:47:20.089Z,7.60
2022-11-05T12:50:01.199Z,7.87
2022-11-05T12:52:52.511Z,7.87
2022-11-05T12:55:32.846Z,7.49
2022-11-05T12:58:12.938Z,8.14
2022-11-05T13:00:48.308Z,8.02
2022-11-05T13:03:27.483Z,7.85
2022-11-05T13:06:05.850Z,8.11
2022-11-05T13:08:41.048Z,7.80
2022-11-05T13:11:21.037Z,7.44
2022-11-05T13:14:06.213Z,7.73
2022-11-05T13:16:39.654Z,7.66
2022-11-05T13:19:18.470Z,7.58
2022-11-05T13:21:53.221Z,7.76
2022-11-05T13:24:25.725Z,8.05
2022-11-05T13:26:59.254Z,7.85
2022-11-05T13:29:34.538Z,7.94
2022-11-05T13:32:14.936Z,8.11
2022-11-05T13:34:44.829Z,7.94
2022-11-05T13:37:35.529Z,7.74
2022-11-05T13:40:13.854Z,7.85
2022-11-05T13:43:18.053Z,8.00
2022-11-05T13:46:06.328Z,7.93
2022-11-05T13:49:12.912Z,7.93
2022-11-05T13:51:51.154Z,7.02
2022-11-05T13:54:56.671Z,7.85
2022-11-05T13:57:49.140Z,7.78
2022-11-05T14:00:23.690Z,7.90
2022-11-05T14:02:56.157Z,7.82
2022-11-05T14:05:30.718Z,7.86
2022-11-05T14:08:02.244Z,7.43
2022-11-05T14:10:44.472Z,7.84
2022-11-05T14:13:23.972Z,7.07
2022-11-05T14:15:58.866Z,5.96
2022-11-05T14:18:43.065Z,7.51
2022-11-05T14:21:48.417Z,6.52
2022-11-05T14:24:47.388Z,6.90
2022-11-05T14:27:44.159Z,7.69
2022-11-05T14:30:46.125Z,7.38
2022-11-05T14:33:32.501Z,7.33
2022-11-05T14:36:38.112Z,7.55
2022-11-05T14:39:30.007Z,6.99
2022-11-05T14:42:05.817Z,7.56
2022-11-05T14:44:37.295Z,7.24
2022-11-05T14:47:22.806Z,6.56
2022-11-05T14:49:55.820Z,7.36
2022-11-05T14:52:26.825Z,6.84
2022-11-05T14:54:59.168Z,7.25
2022-11-05T14:58:04.560Z,7.23
2022-11-05T15:00:50.033Z,7.10
2022-11-05T15:04:02.719Z,7.12
2022-11-05T15:06:34.830Z,7.43
2022-11-05T15:09:28.293Z,7.21
2022-11-05T15:12:09.826Z,6.90
2022-11-05T15:14:48.957Z,7.15
2022-11-05T15:17:23.542Z,6.62
2022-11-05T15:19:55.127Z,6.79
2022-11-05T15:22:33.570Z,7.01
2022-11-05T15:25:06.264Z,6.81
2022-11-05T15:27:47.209Z,7.28
2022-11-05T15:30:18.397Z,7.30
2022-11-05T15:32:47.917Z,6.77
2022-11-05T15:35:24.969Z,7.00
2022-11-05T15:38:02.538Z,6.92
2022-11-05T15:40:36.441Z,6.96
2022-11-05T15:43:18.243Z,6.33
2022-11-05T15:46:17.960Z,6.63
2022-11-05T15:48:49.957Z,6.79
2022-11-05T15:51:19.182Z,6.53
2022-11-05T15:56:56.571Z,6.72
2022-11-05T15:59:27.639Z,6.76
2022-11-05T16:02:02.069Z,6.67
2022-11-05T16:04:33.714Z,6.19
2022-11-05T16:07:09.195Z,6.27
2022-11-05T16:09:41.261Z,6.27
2022-11-05T16:12:24.200Z,6.35
2022-11-05T16:14:59.942Z,6.16
2022-11-05T16:17:33.648Z,5.66
2022-11-05T16:20:04.327Z,5.60
2022-11-05T16:22:48.254Z,6.53
2022-11-05T16:25:38.412Z,6.30
2022-11-05T16:28:23.818Z,5.84
2022-11-05T16:30:57.900Z,5.82
2022-11-05T16:33:32.350Z,6.20
2022-11-05T16:36:02.474Z,6.26
2022-11-05T16:38:32.271Z,6.27
2022-11-05T16:41:01.840Z,5.77
2022-11-05T16:43:33.597Z,6.24
2022-11-05T16:46:03.532Z,5.99
2022-11-05T16:48:33.170Z,6.13
2022-11-05T16:51:02.894Z,6.64
2022-11-05T16:53:32.819Z,6.45
2022-11-05T16:56:06.705Z,6.61
2022-11-05T16:58:43.662Z,6.68
2022-11-05T17:01:19.522Z,5.31
2022-11-05T17:03:52.033Z,5.91
2022-11-05T17:06:23.413Z,6.36
2022-11-05T17:08:52.923Z,4.98
2022-11-05T17:12:11.539Z,6.20
2022-11-05T17:14:42.643Z,6.42
2022-11-05T17:17:14.472Z,6.55
2022-11-05T17:19:48.477Z,4.92
2022-11-05T17:22:35.512Z,4.41
2022-11-05T17:25:05.122Z,4.49
2022-11-05T17:27:35.956Z,6.72
2022-11-05T17:30:12.832Z,5.63
2022-11-05T17:32:44.065Z,5.67
2022-11-05T17:35:14.467Z,4.26
2022-11-05T17:37:45.415Z,5.01
2022-11-05T17:40:24.179Z,6.04
2022-11-05T17:43:01.661Z,6.12
2022-11-05T17:45:41.577Z,5.66
2022-11-05T17:48:11.525Z,5.82
2022-11-05T17:51:03.884Z,6.18
2022-11-05T17:53:35.863Z,4.36
2022-11-05T17:56:40.285Z,5.21
2022-11-05T17:59:12.605Z,6.04
2022-11-05T18:01:47.754Z,5.80
2022-11-05T18:04:19.786Z,5.70
2022-11-05T18:06:49.162Z,6.20
2022-11-05T18:09:18.697Z,5.68
2022-11-05T18:11:48.111Z,6.02
2022-11-05T18:14:31.959Z,5.78
2022-11-05T18:17:02.555Z,6.05
2022-11-05T18:19:53.774Z,5.52
2022-11-05T18:24:34.679Z,5.03
2022-11-05T18:26:22.437Z,5.86
2022-11-05T18:28:51.857Z,6.00
2022-11-05T18:31:24.851Z,5.76
2022-11-05T18:33:58.023Z,6.00
2022-11-05T18:36:29.927Z,5.69
2022-11-05T18:39:18.455Z,6.08
2022-11-05T18:41:51.604Z,5.95
2022-11-05T18:44:25.113Z,5.87
2022-11-05T18:47:26.830Z,6.10
2022-11-05T18:49:57.405Z,5.62
2022-11-05T18:52:28.366Z,5.85
2022-11-05T18:54:58.546Z,5.73
2022-11-05T18:57:29.997Z,6.02
2022-11-05T18:59:59.437Z,6.11
2022-11-05T19:02:28.871Z,6.00
2022-11-05T19:07:52.437Z,5.95
2022-11-05T19:10:21.720Z,6.21
2022-11-05T19:12:55.817Z,6.36
2022-11-05T19:15:27.618Z,6.00
2022-11-05T19:17:58.489Z,5.99
2022-11-05T19:20:37.602Z,5.87
2022-11-05T19:23:07.433Z,6.16
2022-11-05T19:25:38.710Z,6.19
2022-11-05T19:28:08.470Z,6.21
2022-11-05T19:30:39.731Z,5.47
2022-11-05T19:33:09.336Z,5.95
2022-11-05T19:35:43.089Z,5.92
2022-11-05T19:38:14.877Z,5.44
2022-11-05T19:40:44.727Z,6.34
2022-11-05T19:43:14.633Z,5.83
2022-11-05T19:45:45.394Z,5.64
2022-11-05T19:48:19.381Z,6.03
2022-11-05T19:50:53.939Z,6.03
2022-11-05T19:57:59.177Z,5.31
2022-11-05T20:00:37.700Z,4.27
2022-11-05T20:03:24.536Z,5.54
2022-11-05T20:06:10.903Z,4.19
2022-11-05T20:09:06.719Z,6.04
2022-11-05T20:11:31.450Z,6.05
2022-11-05T20:14:03.013Z,6.18
2022-11-05T20:16:38.750Z,5.86
2022-11-05T20:19:54.660Z,5.95
2022-11-05T20:22:33.941Z,4.58
2022-11-05T20:25:03.771Z,6.10
2022-11-05T20:27:41.022Z,4.88
2022-11-05T20:30:34.656Z,4.31
2022-11-05T20:33:10.568Z,6.15
2022-11-05T20:36:17.828Z,6.01
2022-11-05T20:38:45.610Z,6.24
2022-11-05T20:41:22.728Z,4.40
2022-11-05T20:44:01.657Z,5.50
2022-11-05T20:46:44.670Z,5.36
2022-11-05T20:49:24.941Z,4.63
2022-11-05T20:51:57.598Z,5.99
2022-11-05T20:54:29.773Z,5.08
2022-11-05T20:57:01.317Z,6.03
2022-11-05T20:59:35.961Z,5.96
2022-11-05T21:02:05.448Z,5.77
2022-11-05T21:04:35.707Z,6.13
2022-11-05T21:07:05.640Z,5.47
2022-11-05T21:09:37.663Z,4.38
2022-11-05T21:12:14.083Z,5.01
2022-11-05T21:14:48.024Z,6.25
2022-11-05T21:17:18.595Z,6.12
2022-11-05T21:19:53.910Z,6.01
2022-11-05T21:22:26.347Z,4.23
2022-11-05T21:25:04.729Z,6.42
2022-11-05T21:27:53.413Z,4.86
2022-11-05T21:30:38.231Z,4.57
2022-11-05T21:33:19.903Z,4.33
2022-11-05T21:35:50.127Z,6.34
2022-11-05T21:38:19.969Z,5.63
2022-11-05T21:40:51.093Z,6.24
2022-11-05T21:43:20.328Z,6.10
2022-11-05T21:45:51.838Z,6.11
2022-11-05T21:48:21.172Z,6.17
2022-11-05T21:51:09.987Z,5.98
2022-11-05T21:53:58.177Z,6.22
2022-11-05T21:56:49.964Z,6.36
2022-11-05T21:59:45.762Z,6.38
2022-11-05T22:02:18.199Z,6.44
2022-11-05T22:04:52.482Z,6.29
2022-11-05T22:07:25.168Z,5.83
2022-11-05T22:09:54.982Z,4.29
2022-11-05T22:12:27.081Z,5.99
2022-11-05T22:14:57.247Z,6.04
2022-11-05T22:17:29.207Z,6.18
2022-11-05T22:19:58.842Z,6.09
2022-11-05T22:22:30.263Z,5.99
2022-11-05T22:24:59.661Z,5.94
2022-11-05T22:27:36.334Z,5.99
2022-11-05T22:30:11.172Z,5.91
2022-11-05T22:32:42.159Z,5.67
2022-11-05T22:35:11.979Z,5.65
2022-11-05T22:37:41.527Z,6.11
2022-11-05T22:40:13.615Z,6.01
2022-11-05T22:42:44.086Z,5.87
2022-11-05T22:45:13.635Z,6.27
2022-11-05T22:47:43.101Z,5.98
2022-11-05T22:50:12.478Z,6.05
2022-11-05T22:52:42.006Z,6.13
2022-11-05T22:55:11.585Z,5.72
2022-11-05T22:57:40.673Z,6.17
2022-11-05T23:00:17.209Z,5.54
2022-11-05T23:02:46.648Z,6.22
2022-11-05T23:05:16.153Z,5.72
2022-11-05T23:08:04.002Z,6.24
2022-11-05T23:10:51.390Z,6.27
2022-11-05T23:13:22.216Z,6.29
2022-11-05T23:16:12.804Z,5.82
2022-11-05T23:19:04.781Z,6.11
2022-11-05T23:21:51.257Z,6.20
2022-11-05T23:24:21.437Z,6.27
2022-11-05T23:26:54.217Z,6.26
2022-11-05T23:29:26.070Z,6.31
2022-11-05T23:32:14.797Z,6.28
2022-11-05T23:34:45.504Z,6.12
2022-11-05T23:37:32.881Z,6.22
2022-11-05T23:40:02.334Z,6.03
2022-11-05T23:42:51.288Z,6.31
2022-11-05T23:45:38.289Z,5.80
2022-11-05T23:48:22.018Z,6.24
2022-11-05T23:50:55.503Z,5.56
2022-11-05T23:53:25.048Z,6.20
2022-11-05T23:55:54.097Z,5.99
2022-11-05T23:58:23.039Z,6.04
